Beech Croft, New York
Current Conditions -  °F | °C
As of 9:53 PM on Thursday 27 Nov 2014 (Local Time) from KFRG Reporting Station
Overcast Overcast  
Wind Chill: 30°   Ceiling: 2500
Heat Index: 37°   Visibility: 10mi
Dew Point: 30°   Wind: 9mph
Humidity: 76%   Direction: 340°NNW
Pressure: 30.04"   Gusts: NA
Location:  40.8966°N, 73.4362°W
Report Text: KFRG 280253Z 34008KT 10SM OVC025 03/M01 A3004 RMK AO2 SLP171 T00281011 53003
Loading
Personal Weather Stations






























Interactive Weather Map New forecast layout! Learn more

10-Day Weather Forecast

Advertisements
Track Severe Weather on mobile